sensor_id;sensor_type;location;lat;lon;timestamp;P1;durP1;ratioP1;P2;durP2;ratioP2
23179;SDS011;11758;45.756;11.432;2023-10-13T00:02:34;65.80;;;30.35;;
23179;SDS011;11758;45.756;11.432;2023-10-13T00:11:51;67.97;;;31.08;;
23179;SDS011;11758;45.756;11.432;2023-10-13T00:23:36;64.28;;;28.15;;
23179;SDS011;11758;45.756;11.432;2023-10-13T01:30:47;88.05;;;39.00;;
23179;SDS011;11758;45.756;11.432;2023-10-13T01:33:40;90.13;;;38.45;;
23179;SDS011;11758;45.756;11.432;2023-10-13T01:36:09;89.75;;;37.95;;
23179;SDS011;11758;45.756;11.432;2023-10-13T01:38:37;77.95;;;36.42;;
23179;SDS011;11758;45.756;11.432;2023-10-13T01:46:53;76.38;;;36.33;;
23179;SDS011;11758;45.756;11.432;2023-10-13T01:49:38;78.03;;;35.35;;
23179;SDS011;11758;45.756;11.432;2023-10-13T01:52:28;80.85;;;35.53;;
23179;SDS011;11758;45.756;11.432;2023-10-13T01:55:01;84.20;;;35.63;;
23179;SDS011;11758;45.756;11.432;2023-10-13T04:35:05;73.50;;;30.52;;
23179;SDS011;11758;45.756;11.432;2023-10-13T04:41:06;68.13;;;29.67;;
23179;SDS011;11758;45.756;11.432;2023-10-13T04:43:53;72.13;;;32.78;;
23179;SDS011;11758;45.756;11.432;2023-10-13T04:46:27;69.10;;;29.88;;
23179;SDS011;11758;45.756;11.432;2023-10-13T04:51:53;65.90;;;31.25;;
23179;SDS011;11758;45.756;11.432;2023-10-13T04:57:33;64.78;;;30.85;;
23179;SDS011;11758;45.756;11.432;2023-10-13T05:00:24;56.60;;;29.00;;
23179;SDS011;11758;45.756;11.432;2023-10-13T05:03:19;58.83;;;28.20;;
23179;SDS011;11758;45.756;11.432;2023-10-13T05:09:08;58.03;;;25.00;;
23179;SDS011;11758;45.756;11.432;2023-10-13T05:14:54;63.78;;;27.80;;
23179;SDS011;11758;45.756;11.432;2023-10-13T05:20:42;65.20;;;28.45;;
23179;SDS011;11758;45.756;11.432;2023-10-13T05:26:39;67.65;;;30.25;;
23179;SDS011;11758;45.756;11.432;2023-10-13T05:29:29;56.63;;;26.02;;
23179;SDS011;11758;45.756;11.432;2023-10-13T05:44:46;70.55;;;30.20;;
23179;SDS011;11758;45.756;11.432;2023-10-13T05:47:29;63.20;;;27.60;;
23179;SDS011;11758;45.756;11.432;2023-10-13T05:50:20;75.25;;;32.63;;
23179;SDS011;11758;45.756;11.432;2023-10-13T06:01:36;54.67;;;23.83;;
23179;SDS011;11758;45.756;11.432;2023-10-13T06:07:12;43.95;;;19.95;;
23179;SDS011;11758;45.756;11.432;2023-10-13T06:13:06;56.15;;;26.13;;
23179;SDS011;11758;45.756;11.432;2023-10-13T06:18:56;49.90;;;23.17;;
23179;SDS011;11758;45.756;11.432;2023-10-13T06:21:47;57.03;;;25.38;;
23179;SDS011;11758;45.756;11.432;2023-10-13T06:24:42;57.88;;;26.42;;
23179;SDS011;11758;45.756;11.432;2023-10-13T06:27:43;59.65;;;29.58;;
23179;SDS011;11758;45.756;11.432;2023-10-13T06:30:32;81.00;;;30.33;;
23179;SDS011;11758;45.756;11.432;2023-10-13T06:36:02;71.07;;;31.65;;
23179;SDS011;11758;45.756;11.432;2023-10-13T06:41:44;72.82;;;32.40;;
23179;SDS011;11758;45.756;11.432;2023-10-13T06:47:03;76.75;;;36.28;;
23179;SDS011;11758;45.756;11.432;2023-10-13T06:49:32;76.57;;;34.72;;
23179;SDS011;11758;45.756;11.432;2023-10-13T06:54:57;64.18;;;29.45;;
23179;SDS011;11758;45.756;11.432;2023-10-13T07:00:33;74.13;;;33.13;;
23179;SDS011;11758;45.756;11.432;2023-10-13T07:08:35;76.60;;;34.45;;
23179;SDS011;11758;45.756;11.432;2023-10-13T07:13:40;78.97;;;33.65;;
23179;SDS011;11758;45.756;11.432;2023-10-13T07:16:20;92.20;;;35.30;;
23179;SDS011;11758;45.756;11.432;2023-10-13T07:18:48;84.07;;;31.92;;
23179;SDS011;11758;45.756;11.432;2023-10-13T07:21:19;85.90;;;34.63;;
23179;SDS011;11758;45.756;11.432;2023-10-13T07:24:08;65.50;;;30.58;;
23179;SDS011;11758;45.756;11.432;2023-10-13T07:26:39;66.93;;;32.45;;
23179;SDS011;11758;45.756;11.432;2023-10-13T07:35:16;76.20;;;31.63;;
23179;SDS011;11758;45.756;11.432;2023-10-13T07:37:47;72.95;;;33.40;;
23179;SDS011;11758;45.756;11.432;2023-10-13T07:40:22;70.70;;;31.90;;
23179;SDS011;11758;45.756;11.432;2023-10-13T07:43:03;73.40;;;32.97;;
23179;SDS011;11758;45.756;11.432;2023-10-13T07:48:31;68.85;;;32.35;;
23179;SDS011;11758;45.756;11.432;2023-10-13T07:51:11;70.82;;;31.70;;
23179;SDS011;11758;45.756;11.432;2023-10-13T07:56:44;72.70;;;31.42;;
23179;SDS011;11758;45.756;11.432;2023-10-13T07:59:17;75.25;;;33.80;;
23179;SDS011;11758;45.756;11.432;2023-10-13T08:01:49;67.90;;;34.08;;
23179;SDS011;11758;45.756;11.432;2023-10-13T08:10:10;78.72;;;33.15;;
23179;SDS011;11758;45.756;11.432;2023-10-13T08:15:45;69.47;;;32.75;;
23179;SDS011;11758;45.756;11.432;2023-10-13T08:24:06;72.68;;;33.30;;
23179;SDS011;11758;45.756;11.432;2023-10-13T08:26:39;79.35;;;33.65;;
23179;SDS011;11758;45.756;11.432;2023-10-13T08:29:43;73.22;;;32.28;;
23179;SDS011;11758;45.756;11.432;2023-10-13T08:35:36;78.78;;;34.97;;
23179;SDS011;11758;45.756;11.432;2023-10-13T08:38:20;77.40;;;35.25;;
23179;SDS011;11758;45.756;11.432;2023-10-13T08:41:02;80.50;;;34.83;;
23179;SDS011;11758;45.756;11.432;2023-10-13T08:49:52;85.93;;;37.20;;
23179;SDS011;11758;45.756;11.432;2023-10-13T08:52:49;80.43;;;37.47;;
23179;SDS011;11758;45.756;11.432;2023-10-13T08:58:33;73.30;;;35.22;;
23179;SDS011;11758;45.756;11.432;2023-10-13T09:01:24;71.80;;;33.67;;
23179;SDS011;11758;45.756;11.432;2023-10-13T09:07:04;77.97;;;37.33;;
23179;SDS011;11758;45.756;11.432;2023-10-13T09:15:18;70.38;;;31.60;;
23179;SDS011;11758;45.756;11.432;2023-10-13T09:20:48;74.60;;;33.47;;
23179;SDS011;11758;45.756;11.432;2023-10-13T09:23:34;73.13;;;35.08;;
23179;SDS011;11758;45.756;11.432;2023-10-13T09:26:14;86.85;;;34.92;;
23179;SDS011;11758;45.756;11.432;2023-10-13T09:29:00;82.32;;;35.78;;
23179;SDS011;11758;45.756;11.432;2023-10-13T09:31:37;64.15;;;30.90;;
23179;SDS011;11758;45.756;11.432;2023-10-13T09:34:09;75.15;;;32.53;;
23179;SDS011;11758;45.756;11.432;2023-10-13T09:42:36;62.00;;;31.85;;
23179;SDS011;11758;45.756;11.432;2023-10-13T09:45:20;77.25;;;34.92;;
23179;SDS011;11758;45.756;11.432;2023-10-13T09:47:52;73.47;;;34.22;;
23179;SDS011;11758;45.756;11.432;2023-10-13T09:53:32;81.25;;;36.75;;
23179;SDS011;11758;45.756;11.432;2023-10-13T09:56:11;65.20;;;31.92;;
23179;SDS011;11758;45.756;11.432;2023-10-13T10:01:50;74.30;;;33.38;;
23179;SDS011;11758;45.756;11.432;2023-10-13T10:07:09;68.55;;;34.05;;
23179;SDS011;11758;45.756;11.432;2023-10-13T10:09:44;79.10;;;36.45;;
23179;SDS011;11758;45.756;11.432;2023-10-13T10:12:32;82.85;;;36.55;;
23179;SDS011;11758;45.756;11.432;2023-10-13T10:15:06;80.78;;;38.13;;
23179;SDS011;11758;45.756;11.432;2023-10-13T10:17:39;75.80;;;34.78;;
23179;SDS011;11758;45.756;11.432;2023-10-13T10:20:10;81.82;;;36.92;;
23179;SDS011;11758;45.756;11.432;2023-10-13T10:22:59;76.07;;;34.42;;
23179;SDS011;11758;45.756;11.432;2023-10-13T10:25:32;72.15;;;35.47;;
23179;SDS011;11758;45.756;11.432;2023-10-13T10:28:06;88.63;;;40.67;;
23179;SDS011;11758;45.756;11.432;2023-10-13T10:33:35;84.40;;;39.53;;
23179;SDS011;11758;45.756;11.432;2023-10-13T10:36:10;90.40;;;39.22;;
23179;SDS011;11758;45.756;11.432;2023-10-13T10:44:17;89.43;;;40.75;;
23179;SDS011;11758;45.756;11.432;2023-10-13T10:56:16;97.25;;;43.78;;
23179;SDS011;11758;45.756;11.432;2023-10-13T11:01:27;98.70;;;46.35;;
23179;SDS011;11758;45.756;11.432;2023-10-13T11:07:20;84.15;;;41.88;;
23179;SDS011;11758;45.756;11.432;2023-10-13T11:12:54;101.80;;;46.60;;
23179;SDS011;11758;45.756;11.432;2023-10-13T11:15:54;91.28;;;45.00;;
23179;SDS011;11758;45.756;11.432;2023-10-13T11:36:45;93.55;;;44.67;;
23179;SDS011;11758;45.756;11.432;2023-10-13T11:39:18;93.93;;;46.75;;
23179;SDS011;11758;45.756;11.432;2023-10-13T11:45:02;84.18;;;38.90;;
23179;SDS011;11758;45.756;11.432;2023-10-13T11:53:41;89.90;;;42.75;;
23179;SDS011;11758;45.756;11.432;2023-10-13T11:56:20;92.05;;;41.70;;
23179;SDS011;11758;45.756;11.432;2023-10-13T12:02:26;94.82;;;42.55;;
23179;SDS011;11758;45.756;11.432;2023-10-13T12:14:03;87.07;;;46.03;;
23179;SDS011;11758;45.756;11.432;2023-10-13T12:16:55;110.03;;;49.40;;
23179;SDS011;11758;45.756;11.432;2023-10-13T12:22:39;92.93;;;44.70;;
23179;SDS011;11758;45.756;11.432;2023-10-13T12:31:03;73.85;;;39.25;;
23179;SDS011;11758;45.756;11.432;2023-10-13T12:33:33;85.60;;;40.55;;
23179;SDS011;11758;45.756;11.432;2023-10-13T12:36:06;84.50;;;37.00;;
23179;SDS011;11758;45.756;11.432;2023-10-13T12:38:53;85.22;;;41.95;;
23179;SDS011;11758;45.756;11.432;2023-10-13T12:41:39;88.68;;;41.10;;
23179;SDS011;11758;45.756;11.432;2023-10-13T12:44:25;81.72;;;41.38;;
23179;SDS011;11758;45.756;11.432;2023-10-13T12:50:30;73.10;;;38.97;;
23179;SDS011;11758;45.756;11.432;2023-10-13T12:56:12;84.50;;;39.70;;
23179;SDS011;11758;45.756;11.432;2023-10-13T12:58:49;87.82;;;36.20;;
23179;SDS011;11758;45.756;11.432;2023-10-13T13:01:47;77.88;;;35.17;;
23179;SDS011;11758;45.756;11.432;2023-10-13T13:04:25;69.78;;;34.13;;
23179;SDS011;11758;45.756;11.432;2023-10-13T13:06:59;90.65;;;40.05;;
23179;SDS011;11758;45.756;11.432;2023-10-13T13:09:29;82.45;;;38.40;;
23179;SDS011;11758;45.756;11.432;2023-10-13T13:17:50;88.28;;;41.90;;
23179;SDS011;11758;45.756;11.432;2023-10-13T13:22:56;82.22;;;41.50;;
23179;SDS011;11758;45.756;11.432;2023-10-13T13:25:30;83.82;;;41.67;;
23179;SDS011;11758;45.756;11.432;2023-10-13T13:28:00;77.85;;;38.25;;
23179;SDS011;11758;45.756;11.432;2023-10-13T13:30:34;83.00;;;42.97;;
23179;SDS011;11758;45.756;11.432;2023-10-13T13:33:16;80.88;;;42.05;;
23179;SDS011;11758;45.756;11.432;2023-10-13T13:35:48;57.15;;;30.70;;
23179;SDS011;11758;45.756;11.432;2023-10-13T13:41:01;79.93;;;40.33;;
23179;SDS011;11758;45.756;11.432;2023-10-13T13:43:43;105.72;;;43.10;;
23179;SDS011;11758;45.756;11.432;2023-10-13T13:46:20;80.65;;;41.38;;
23179;SDS011;11758;45.756;11.432;2023-10-13T13:48:55;80.07;;;41.38;;
23179;SDS011;11758;45.756;11.432;2023-10-13T13:54:41;77.70;;;39.50;;
23179;SDS011;11758;45.756;11.432;2023-10-13T14:00:11;63.83;;;33.13;;
23179;SDS011;11758;45.756;11.432;2023-10-13T14:02:58;81.00;;;39.88;;
23179;SDS011;11758;45.756;11.432;2023-10-13T14:05:26;78.20;;;38.85;;
23179;SDS011;11758;45.756;11.432;2023-10-13T14:07:56;76.60;;;39.22;;
23179;SDS011;11758;45.756;11.432;2023-10-13T14:13:21;66.53;;;33.08;;
23179;SDS011;11758;45.756;11.432;2023-10-13T14:16:17;76.82;;;39.42;;
23179;SDS011;11758;45.756;11.432;2023-10-13T14:18:47;74.63;;;38.05;;
23179;SDS011;11758;45.756;11.432;2023-10-13T14:24:11;69.22;;;33.58;;
23179;SDS011;11758;45.756;11.432;2023-10-13T14:27:07;79.00;;;39.25;;
23179;SDS011;11758;45.756;11.432;2023-10-13T14:30:02;69.65;;;35.63;;
23179;SDS011;11758;45.756;11.432;2023-10-13T14:32:40;74.82;;;36.22;;
23179;SDS011;11758;45.756;11.432;2023-10-13T14:37:46;68.70;;;38.70;;
23179;SDS011;11758;45.756;11.432;2023-10-13T14:43:02;84.68;;;40.10;;
23179;SDS011;11758;45.756;11.432;2023-10-13T14:57:22;67.10;;;35.90;;
23179;SDS011;11758;45.756;11.432;2023-10-13T15:02:58;71.85;;;37.20;;
23179;SDS011;11758;45.756;11.432;2023-10-13T15:08:34;78.75;;;39.58;;
23179;SDS011;11758;45.756;11.432;2023-10-13T15:11:11;83.53;;;40.47;;
23179;SDS011;11758;45.756;11.432;2023-10-13T15:25:01;87.10;;;39.63;;
23179;SDS011;11758;45.756;11.432;2023-10-13T15:36:59;89.45;;;41.42;;
23179;SDS011;11758;45.756;11.432;2023-10-13T15:39:43;60.00;;;30.75;;
23179;SDS011;11758;45.756;11.432;2023-10-13T15:42:09;53.70;;;29.00;;
23179;SDS011;11758;45.756;11.432;2023-10-13T15:44:55;61.78;;;32.20;;
23179;SDS011;11758;45.756;11.432;2023-10-13T15:47:22;64.38;;;34.40;;
23179;SDS011;11758;45.756;11.432;2023-10-13T15:49:51;48.63;;;28.88;;
23179;SDS011;11758;45.756;11.432;2023-10-13T15:52:20;63.20;;;31.75;;
23179;SDS011;11758;45.756;11.432;2023-10-13T15:54:48;56.20;;;30.80;;
23179;SDS011;11758;45.756;11.432;2023-10-13T15:57:15;71.30;;;35.88;;
23179;SDS011;11758;45.756;11.432;2023-10-13T16:05:17;54.47;;;30.45;;
23179;SDS011;11758;45.756;11.432;2023-10-13T16:07:54;48.10;;;27.35;;
23179;SDS011;11758;45.756;11.432;2023-10-13T16:13:03;56.58;;;27.48;;
23179;SDS011;11758;45.756;11.432;2023-10-13T16:15:42;59.95;;;28.00;;
23179;SDS011;11758;45.756;11.432;2023-10-13T16:21:06;57.25;;;32.63;;
23179;SDS011;11758;45.756;11.432;2023-10-13T16:31:54;66.70;;;34.75;;
23179;SDS011;11758;45.756;11.432;2023-10-13T16:34:22;68.35;;;34.92;;
23179;SDS011;11758;45.756;11.432;2023-10-13T16:37:00;59.67;;;34.92;;
23179;SDS011;11758;45.756;11.432;2023-10-13T16:39:45;67.70;;;33.15;;
23179;SDS011;11758;45.756;11.432;2023-10-13T16:42:22;52.15;;;28.20;;
23179;SDS011;11758;45.756;11.432;2023-10-13T16:44:53;56.35;;;31.73;;
23179;SDS011;11758;45.756;11.432;2023-10-13T16:47:19;66.70;;;32.75;;
23179;SDS011;11758;45.756;11.432;2023-10-13T16:49:46;66.68;;;34.03;;
23179;SDS011;11758;45.756;11.432;2023-10-13T16:52:13;55.70;;;32.45;;
23179;SDS011;11758;45.756;11.432;2023-10-13T16:54:41;61.03;;;32.97;;
23179;SDS011;11758;45.756;11.432;2023-10-13T16:57:13;61.83;;;32.10;;
23179;SDS011;11758;45.756;11.432;2023-10-13T16:59:43;61.70;;;34.53;;
23179;SDS011;11758;45.756;11.432;2023-10-13T17:02:12;64.47;;;32.28;;
23179;SDS011;11758;45.756;11.432;2023-10-13T17:04:40;68.25;;;34.15;;
23179;SDS011;11758;45.756;11.432;2023-10-13T17:07:07;57.17;;;31.60;;
23179;SDS011;11758;45.756;11.432;2023-10-13T17:09:33;61.97;;;33.15;;
23179;SDS011;11758;45.756;11.432;2023-10-13T17:11:59;59.72;;;31.15;;
23179;SDS011;11758;45.756;11.432;2023-10-13T17:14:26;71.80;;;36.10;;
23179;SDS011;11758;45.756;11.432;2023-10-13T17:16:54;69.95;;;35.72;;
23179;SDS011;11758;45.756;11.432;2023-10-13T17:19:23;70.43;;;35.30;;
23179;SDS011;11758;45.756;11.432;2023-10-13T17:21:49;68.75;;;34.80;;
23179;SDS011;11758;45.756;11.432;2023-10-13T17:24:19;78.63;;;36.95;;
23179;SDS011;11758;45.756;11.432;2023-10-13T17:26:46;58.13;;;32.58;;
23179;SDS011;11758;45.756;11.432;2023-10-13T17:29:15;65.10;;;33.10;;
23179;SDS011;11758;45.756;11.432;2023-10-13T17:31:41;69.15;;;35.45;;
23179;SDS011;11758;45.756;11.432;2023-10-13T17:34:08;65.70;;;35.00;;
23179;SDS011;11758;45.756;11.432;2023-10-13T17:36:35;68.70;;;36.38;;
23179;SDS011;11758;45.756;11.432;2023-10-13T17:39:03;70.15;;;34.58;;
23179;SDS011;11758;45.756;11.432;2023-10-13T17:41:34;60.13;;;33.08;;
23179;SDS011;11758;45.756;11.432;2023-10-13T17:44:00;68.60;;;36.13;;
23179;SDS011;11758;45.756;11.432;2023-10-13T17:46:27;75.65;;;36.15;;
23179;SDS011;11758;45.756;11.432;2023-10-13T17:48:54;75.40;;;38.60;;
23179;SDS011;11758;45.756;11.432;2023-10-13T17:51:20;66.93;;;37.05;;
23179;SDS011;11758;45.756;11.432;2023-10-13T17:53:48;72.97;;;33.50;;
23179;SDS011;11758;45.756;11.432;2023-10-13T17:56:14;67.53;;;36.72;;
23179;SDS011;11758;45.756;11.432;2023-10-13T17:58:44;82.78;;;37.53;;
23179;SDS011;11758;45.756;11.432;2023-10-13T18:01:11;61.72;;;32.53;;
23179;SDS011;11758;45.756;11.432;2023-10-13T18:06:17;77.43;;;37.95;;
23179;SDS011;11758;45.756;11.432;2023-10-13T18:08:45;73.22;;;36.65;;
23179;SDS011;11758;45.756;11.432;2023-10-13T18:11:11;76.88;;;38.95;;
23179;SDS011;11758;45.756;11.432;2023-10-13T18:13:41;80.18;;;40.33;;
23179;SDS011;11758;45.756;11.432;2023-10-13T18:16:20;76.55;;;38.08;;
23179;SDS011;11758;45.756;11.432;2023-10-13T18:18:47;76.28;;;37.90;;
23179;SDS011;11758;45.756;11.432;2023-10-13T18:21:15;84.15;;;40.55;;
23179;SDS011;11758;45.756;11.432;2023-10-13T18:23:45;82.65;;;37.63;;
23179;SDS011;11758;45.756;11.432;2023-10-13T18:26:11;76.70;;;39.13;;
23179;SDS011;11758;45.756;11.432;2023-10-13T18:28:38;79.65;;;38.63;;
23179;SDS011;11758;45.756;11.432;2023-10-13T18:31:04;74.43;;;37.28;;
23179;SDS011;11758;45.756;11.432;2023-10-13T18:33:35;78.93;;;37.33;;
23179;SDS011;11758;45.756;11.432;2023-10-13T18:38:44;75.38;;;38.50;;
23179;SDS011;11758;45.756;11.432;2023-10-13T18:41:10;78.85;;;36.92;;
23179;SDS011;11758;45.756;11.432;2023-10-13T18:43:41;71.47;;;37.08;;
23179;SDS011;11758;45.756;11.432;2023-10-13T18:46:07;71.70;;;36.22;;
23179;SDS011;11758;45.756;11.432;2023-10-13T18:48:37;65.15;;;35.00;;
23179;SDS011;11758;45.756;11.432;2023-10-13T18:51:04;78.85;;;36.80;;
23179;SDS011;11758;45.756;11.432;2023-10-13T18:53:31;66.85;;;35.15;;
23179;SDS011;11758;45.756;11.432;2023-10-13T18:56:05;77.00;;;38.78;;
23179;SDS011;11758;45.756;11.432;2023-10-13T18:58:38;78.00;;;38.20;;
23179;SDS011;11758;45.756;11.432;2023-10-13T19:01:11;82.07;;;36.35;;
23179;SDS011;11758;45.756;11.432;2023-10-13T19:03:40;69.90;;;33.92;;
23179;SDS011;11758;45.756;11.432;2023-10-13T19:06:07;71.35;;;34.83;;
23179;SDS011;11758;45.756;11.432;2023-10-13T19:08:33;71.57;;;35.97;;
23179;SDS011;11758;45.756;11.432;2023-10-13T19:11:06;68.18;;;33.08;;
23179;SDS011;11758;45.756;11.432;2023-10-13T19:13:39;70.43;;;35.08;;
23179;SDS011;11758;45.756;11.432;2023-10-13T19:16:09;72.13;;;36.05;;
23179;SDS011;11758;45.756;11.432;2023-10-13T19:18:37;70.22;;;37.55;;
23179;SDS011;11758;45.756;11.432;2023-10-13T19:21:04;78.05;;;36.80;;
23179;SDS011;11758;45.756;11.432;2023-10-13T19:23:31;71.65;;;36.03;;
23179;SDS011;11758;45.756;11.432;2023-10-13T19:25:58;67.72;;;32.45;;
23179;SDS011;11758;45.756;11.432;2023-10-13T19:28:29;69.07;;;32.40;;
23179;SDS011;11758;45.756;11.432;2023-10-13T19:30:55;69.03;;;33.88;;
23179;SDS011;11758;45.756;11.432;2023-10-13T19:33:21;68.55;;;34.35;;
23179;SDS011;11758;45.756;11.432;2023-10-13T19:35:47;84.97;;;38.03;;
23179;SDS011;11758;45.756;11.432;2023-10-13T19:38:15;67.93;;;34.90;;
23179;SDS011;11758;45.756;11.432;2023-10-13T19:40:42;78.35;;;37.50;;
23179;SDS011;11758;45.756;11.432;2023-10-13T19:43:08;76.45;;;37.78;;
23179;SDS011;11758;45.756;11.432;2023-10-13T19:45:38;78.30;;;39.00;;
23179;SDS011;11758;45.756;11.432;2023-10-13T19:48:05;79.68;;;39.10;;
23179;SDS011;11758;45.756;11.432;2023-10-13T19:50:37;81.00;;;38.55;;
23179;SDS011;11758;45.756;11.432;2023-10-13T19:53:08;84.22;;;38.85;;
23179;SDS011;11758;45.756;11.432;2023-10-13T19:55:38;79.03;;;39.45;;
23179;SDS011;11758;45.756;11.432;2023-10-13T19:58:09;81.95;;;38.13;;
23179;SDS011;11758;45.756;11.432;2023-10-13T20:00:35;78.20;;;40.85;;
23179;SDS011;11758;45.756;11.432;2023-10-13T20:03:02;83.70;;;41.35;;
23179;SDS011;11758;45.756;11.432;2023-10-13T20:05:28;88.47;;;42.80;;
23179;SDS011;11758;45.756;11.432;2023-10-13T20:07:55;96.10;;;42.45;;
23179;SDS011;11758;45.756;11.432;2023-10-13T20:10:22;93.53;;;44.03;;
23179;SDS011;11758;45.756;11.432;2023-10-13T20:12:48;95.15;;;43.28;;
23179;SDS011;11758;45.756;11.432;2023-10-13T20:15:14;88.30;;;40.72;;
23179;SDS011;11758;45.756;11.432;2023-10-13T20:17:46;90.63;;;42.40;;
23179;SDS011;11758;45.756;11.432;2023-10-13T20:20:16;102.88;;;43.60;;
23179;SDS011;11758;45.756;11.432;2023-10-13T20:22:43;88.88;;;42.72;;
23179;SDS011;11758;45.756;11.432;2023-10-13T20:25:09;91.10;;;42.95;;
23179;SDS011;11758;45.756;11.432;2023-10-13T20:27:41;95.50;;;44.70;;
23179;SDS011;11758;45.756;11.432;2023-10-13T20:30:08;96.05;;;44.40;;
23179;SDS011;11758;45.756;11.432;2023-10-13T20:32:35;96.32;;;44.05;;
23179;SDS011;11758;45.756;11.432;2023-10-13T20:35:01;95.47;;;43.95;;
23179;SDS011;11758;45.756;11.432;2023-10-13T20:37:28;101.32;;;43.85;;
23179;SDS011;11758;45.756;11.432;2023-10-13T20:39:55;94.25;;;44.22;;
23179;SDS011;11758;45.756;11.432;2023-10-13T20:42:23;88.78;;;44.05;;
23179;SDS011;11758;45.756;11.432;2023-10-13T20:44:49;109.88;;;46.58;;
23179;SDS011;11758;45.756;11.432;2023-10-13T20:47:16;103.22;;;45.53;;
23179;SDS011;11758;45.756;11.432;2023-10-13T20:49:42;88.95;;;41.35;;
23179;SDS011;11758;45.756;11.432;2023-10-13T20:52:11;90.90;;;41.22;;
23179;SDS011;11758;45.756;11.432;2023-10-13T20:54:37;109.57;;;48.28;;
23179;SDS011;11758;45.756;11.432;2023-10-13T20:57:06;91.78;;;44.55;;
23179;SDS011;11758;45.756;11.432;2023-10-13T20:59:35;98.82;;;44.38;;
23179;SDS011;11758;45.756;11.432;2023-10-13T21:02:05;105.85;;;45.80;;
23179;SDS011;11758;45.756;11.432;2023-10-13T21:04:34;97.22;;;44.28;;
23179;SDS011;11758;45.756;11.432;2023-10-13T21:07:01;111.18;;;45.75;;
23179;SDS011;11758;45.756;11.432;2023-10-13T21:09:29;99.82;;;46.08;;
23179;SDS011;11758;45.756;11.432;2023-10-13T21:11:56;97.47;;;45.53;;
23179;SDS011;11758;45.756;11.432;2023-10-13T21:14:29;96.57;;;43.00;;
23179;SDS011;11758;45.756;11.432;2023-10-13T21:16:55;98.97;;;44.47;;
23179;SDS011;11758;45.756;11.432;2023-10-13T21:19:21;93.55;;;43.55;;
23179;SDS011;11758;45.756;11.432;2023-10-13T21:21:48;99.03;;;41.90;;
23179;SDS011;11758;45.756;11.432;2023-10-13T21:24:14;93.68;;;42.78;;
23179;SDS011;11758;45.756;11.432;2023-10-13T21:26:42;90.45;;;42.38;;
23179;SDS011;11758;45.756;11.432;2023-10-13T21:29:08;83.30;;;42.10;;
23179;SDS011;11758;45.756;11.432;2023-10-13T21:31:34;102.18;;;42.92;;
23179;SDS011;11758;45.756;11.432;2023-10-13T21:34:03;81.90;;;39.13;;
23179;SDS011;11758;45.756;11.432;2023-10-13T21:36:33;84.95;;;40.75;;
23179;SDS011;11758;45.756;11.432;2023-10-13T21:39:02;82.40;;;39.08;;
23179;SDS011;11758;45.756;11.432;2023-10-13T21:41:29;74.78;;;38.05;;
23179;SDS011;11758;45.756;11.432;2023-10-13T21:43:55;81.35;;;38.25;;
23179;SDS011;11758;45.756;11.432;2023-10-13T21:46:24;82.55;;;41.42;;
23179;SDS011;11758;45.756;11.432;2023-10-13T21:48:50;87.65;;;41.78;;
23179;SDS011;11758;45.756;11.432;2023-10-13T21:51:17;94.55;;;41.95;;
23179;SDS011;11758;45.756;11.432;2023-10-13T21:53:44;88.97;;;40.92;;
23179;SDS011;11758;45.756;11.432;2023-10-13T21:56:21;81.22;;;37.28;;
23179;SDS011;11758;45.756;11.432;2023-10-13T21:58:49;78.18;;;39.22;;
23179;SDS011;11758;45.756;11.432;2023-10-13T22:01:15;73.85;;;37.72;;
23179;SDS011;11758;45.756;11.432;2023-10-13T22:03:45;82.00;;;38.60;;
23179;SDS011;11758;45.756;11.432;2023-10-13T22:06:11;63.20;;;32.40;;
23179;SDS011;11758;45.756;11.432;2023-10-13T22:08:37;74.78;;;36.95;;
23179;SDS011;11758;45.756;11.432;2023-10-13T22:11:03;82.13;;;37.55;;
23179;SDS011;11758;45.756;11.432;2023-10-13T22:13:29;81.25;;;38.28;;
23179;SDS011;11758;45.756;11.432;2023-10-13T22:16:02;87.15;;;40.38;;
23179;SDS011;11758;45.756;11.432;2023-10-13T22:18:35;72.03;;;35.67;;
23179;SDS011;11758;45.756;11.432;2023-10-13T22:21:01;77.13;;;36.10;;
23179;SDS011;11758;45.756;11.432;2023-10-13T22:23:27;85.50;;;36.25;;
23179;SDS011;11758;45.756;11.432;2023-10-13T22:25:54;79.47;;;36.97;;
23179;SDS011;11758;45.756;11.432;2023-10-13T22:28:20;70.82;;;35.00;;
23179;SDS011;11758;45.756;11.432;2023-10-13T22:30:46;77.57;;;35.22;;
23179;SDS011;11758;45.756;11.432;2023-10-13T22:33:14;79.68;;;35.33;;
23179;SDS011;11758;45.756;11.432;2023-10-13T22:35:40;77.35;;;35.13;;
23179;SDS011;11758;45.756;11.432;2023-10-13T22:38:07;71.88;;;36.10;;
23179;SDS011;11758;45.756;11.432;2023-10-13T22:40:33;76.55;;;34.47;;
23179;SDS011;11758;45.756;11.432;2023-10-13T22:42:59;76.13;;;35.38;;
23179;SDS011;11758;45.756;11.432;2023-10-13T22:45:26;85.07;;;37.80;;
23179;SDS011;11758;45.756;11.432;2023-10-13T22:47:56;80.75;;;37.67;;
23179;SDS011;11758;45.756;11.432;2023-10-13T22:50:22;81.43;;;38.10;;
23179;SDS011;11758;45.756;11.432;2023-10-13T22:52:53;86.32;;;39.40;;
23179;SDS011;11758;45.756;11.432;2023-10-13T22:55:25;77.55;;;36.45;;
23179;SDS011;11758;45.756;11.432;2023-10-13T22:57:53;77.05;;;35.85;;
23179;SDS011;11758;45.756;11.432;2023-10-13T23:00:19;77.38;;;37.97;;
23179;SDS011;11758;45.756;11.432;2023-10-13T23:03:05;84.30;;;37.80;;
23179;SDS011;11758;45.756;11.432;2023-10-13T23:05:33;83.90;;;37.85;;
23179;SDS011;11758;45.756;11.432;2023-10-13T23:08:32;82.80;;;35.92;;
23179;SDS011;11758;45.756;11.432;2023-10-13T23:16:06;84.10;;;37.63;;
23179;SDS011;11758;45.756;11.432;2023-10-13T23:18:33;89.07;;;38.60;;
23179;SDS011;11758;45.756;11.432;2023-10-13T23:20:59;91.20;;;36.05;;
23179;SDS011;11758;45.756;11.432;2023-10-13T23:23:32;75.68;;;37.60;;
23179;SDS011;11758;45.756;11.432;2023-10-13T23:25:58;91.00;;;38.28;;
23179;SDS011;11758;45.756;11.432;2023-10-13T23:28:28;86.18;;;37.08;;
23179;SDS011;11758;45.756;11.432;2023-10-13T23:30:54;85.82;;;40.00;;
23179;SDS011;11758;45.756;11.432;2023-10-13T23:33:20;99.90;;;39.05;;
23179;SDS011;11758;45.756;11.432;2023-10-13T23:35:48;83.38;;;38.63;;
23179;SDS011;11758;45.756;11.432;2023-10-13T23:38:15;82.00;;;37.85;;
23179;SDS011;11758;45.756;11.432;2023-10-13T23:40:53;89.93;;;39.45;;
23179;SDS011;11758;45.756;11.432;2023-10-13T23:43:23;82.97;;;36.75;;
23179;SDS011;11758;45.756;11.432;2023-10-13T23:45:56;78.32;;;36.17;;
23179;SDS011;11758;45.756;11.432;2023-10-13T23:48:24;76.80;;;32.60;;
23179;SDS011;11758;45.756;11.432;2023-10-13T23:50:51;76.38;;;33.95;;
23179;SDS011;11758;45.756;11.432;2023-10-13T23:53:25;77.05;;;32.85;;
23179;SDS011;11758;45.756;11.432;2023-10-13T23:55:56;62.45;;;31.50;;
23179;SDS011;11758;45.756;11.432;2023-10-13T23:58:34;74.38;;;35.17;;
